Time;durP1;ratioP1;P1;durP2;ratioP2;P2;SDS_P1;SDS_P2;PMS_P1;PMS_P2;Temp;Humidity;BMP_temperature;BMP_pressure;BME280_temperature;BME280_humidity;BME280_pressure;Samples;Min_cycle;Max_cycle;Signal;HPM_P1;HPM_P2
2024/04/14 00:01:47;;;;;;;12.40;9.27;;;;;;;14.90;91.33;98690.19;4539006;26;20573;-80
2024/04/14 00:03:57;;;;;;;10.67;9.23;;;;;;;14.89;91.24;98687.66;4517443;26;20573;-80
2024/04/14 00:06:00;;;;;;;10.23;9.23;;;;;;;14.87;91.26;98694.81;4540033;26;20686;-80
2024/04/14 00:08:07;;;;;;;14.30;10.77;;;;;;;14.86;91.41;98696.59;4543308;26;21123;-81
2024/04/14 00:10:10;;;;;;;9.70;8.70;;;;;;;14.82;91.35;98686.44;4503364;26;20910;-80
2024/04/14 00:12:16;;;;;;;11.23;9.50;;;;;;;14.77;91.36;98685.97;4530826;26;20566;-80
2024/04/14 00:14:24;;;;;;;9.80;8.63;;;;;;;14.75;91.73;98686.09;4507709;26;21158;-80
2024/04/14 00:16:29;;;;;;;10.93;8.43;;;;;;;14.74;91.75;98686.19;4551397;25;20629;-80
2024/04/14 00:18:32;;;;;;;13.00;8.83;;;;;;;14.71;91.15;98684.63;4545846;26;20612;-81
2024/04/14 00:20:40;;;;;;;9.37;8.40;;;;;;;14.68;90.99;98678.78;4565309;26;20558;-80
2024/04/14 00:22:44;;;;;;;9.63;8.50;;;;;;;14.65;91.39;98671.97;4536438;26;20645;-81
2024/04/14 00:24:50;;;;;;;9.20;8.30;;;;;;;14.65;91.63;98674.59;4521287;26;20717;-80
2024/04/14 00:26:53;;;;;;;11.47;8.50;;;;;;;14.60;91.67;98668.03;4500291;26;21958;-80
2024/04/14 00:28:59;;;;;;;9.10;8.20;;;;;;;14.59;91.65;98664.53;4511666;26;20537;-80
2024/04/14 00:31:04;;;;;;;9.80;8.80;;;;;;;14.55;91.65;98664.88;4504316;26;20959;-80
2024/04/14 00:33:10;;;;;;;9.80;8.77;;;;;;;14.53;91.67;98665.97;4507840;26;20583;-80
2024/04/14 00:35:13;;;;;;;10.00;9.00;;;;;;;14.51;91.72;98668.72;4565156;25;20621;-80
2024/04/14 00:37:19;;;;;;;11.20;9.73;;;;;;;14.52;92.17;98667.75;4535738;26;21255;-80
2024/04/14 00:39:22;;;;;;;11.60;8.87;;;;;;;14.50;91.88;98669.66;4546062;26;20584;-80
2024/04/14 00:41:28;;;;;;;9.80;8.80;;;;;;;14.49;91.71;98667.16;4541881;26;20574;-80
2024/04/14 00:43:31;;;;;;;10.03;8.90;;;;;;;14.43;91.43;98662.34;4532453;26;20569;-80
2024/04/14 00:45:36;;;;;;;9.93;8.50;;;;;;;14.41;91.48;98666.88;4532348;26;20614;-80
2024/04/14 00:47:41;;;;;;;9.40;8.40;;;;;;;14.38;91.47;98659.25;4534213;26;20748;-80
2024/04/14 00:49:47;;;;;;;9.43;8.43;;;;;;;14.35;91.67;98664.72;4568149;26;20664;-80
2024/04/14 00:51:50;;;;;;;11.90;8.80;;;;;;;14.31;91.63;98658.00;4542438;26;20565;-80
2024/04/14 00:53:56;;;;;;;9.33;8.43;;;;;;;14.30;91.83;98666.84;4526265;26;20575;-81
2024/04/14 00:55:59;;;;;;;10.10;7.90;;;;;;;14.27;92.18;98656.59;4541697;26;20556;-80
2024/04/14 00:58:06;;;;;;;9.73;7.70;;;;;;;14.26;92.12;98662.78;4534551;26;20603;-80
2024/04/14 01:00:10;;;;;;;8.87;7.97;;;;;;;14.23;91.81;98660.38;4512729;26;21154;-80
2024/04/14 01:02:16;;;;;;;10.20;8.33;;;;;;;14.20;92.17;98660.59;4539813;26;20569;-80
2024/04/14 01:04:23;;;;;;;14.43;8.97;;;;;;;14.17;92.40;98668.69;4505407;26;20575;-80
2024/04/14 01:06:28;;;;;;;8.97;8.07;;;;;;;14.18;92.10;98662.50;4534776;26;20742;-81
2024/04/14 01:08:32;;;;;;;10.53;8.30;;;;;;;14.15;92.28;98657.47;4531473;26;20565;-80
2024/04/14 01:10:38;;;;;;;9.33;8.33;;;;;;;14.13;92.17;98651.50;4535632;26;20566;-80
2024/04/14 01:12:42;;;;;;;10.47;8.30;;;;;;;14.12;91.95;98660.34;4562937;26;20583;-80
2024/04/14 01:14:48;;;;;;;9.20;8.30;;;;;;;14.10;92.60;98664.00;4534726;26;20616;-81
2024/04/14 01:16:51;;;;;;;9.93;8.27;;;;;;;14.08;92.33;98658.88;4551447;26;20590;-80
2024/04/14 01:18:57;;;;;;;9.20;8.30;;;;;;;14.06;92.72;98663.41;4504826;26;20562;-80
2024/04/14 01:21:03;;;;;;;9.43;8.53;;;;;;;14.01;92.49;98665.50;4545914;26;20532;-80
2024/04/14 01:23:11;;;;;;;11.00;8.43;;;;;;;13.95;92.51;98665.94;4539015;26;20636;-81
2024/04/14 01:25:16;;;;;;;11.33;8.67;;;;;;;13.90;92.21;98654.09;4538390;26;20571;-80
2024/04/14 01:27:25;;;;;;;13.33;8.30;;;;;;;13.85;92.08;98650.97;4540033;26;20557;-80
2024/04/14 01:29:28;;;;;;;12.37;9.10;;;;;;;13.81;91.83;98660.84;4544228;26;20564;-81
2024/04/14 01:31:34;;;;;;;10.20;8.67;;;;;;;13.79;92.35;98654.03;4535571;26;20975;-80
2024/04/14 01:33:38;;;;;;;9.13;8.23;;;;;;;13.78;92.16;98668.91;4533494;26;20647;-80
2024/04/14 01:35:43;;;;;;;11.30;8.60;;;;;;;13.76;92.95;98652.47;4502967;26;20570;-80
2024/04/14 01:37:47;;;;;;;9.20;8.30;;;;;;;13.77;92.68;98659.41;4540136;26;20553;-80
2024/04/14 01:39:54;;;;;;;11.97;8.83;;;;;;;13.77;92.69;98664.66;4506959;26;22564;-80
2024/04/14 01:41:59;;;;;;;10.27;9.07;;;;;;;13.78;92.90;98654.97;4536675;26;21013;-80
2024/04/14 01:44:05;;;;;;;13.33;9.17;;;;;;;13.77;93.22;98656.78;4500330;26;20562;-80
2024/04/14 01:46:09;;;;;;;10.20;9.20;;;;;;;13.75;93.60;98657.81;4537773;26;20622;-80
2024/04/14 01:48:15;;;;;;;9.07;8.00;;;;;;;13.74;93.56;98651.75;4507140;26;21225;-80
2024/04/14 01:50:20;;;;;;;9.47;8.47;;;;;;;13.70;93.09;98650.28;4541977;26;20663;-80
2024/04/14 01:52:26;;;;;;;11.00;8.90;;;;;;;13.70;93.03;98649.47;4505930;26;20563;-80
2024/04/14 01:54:29;;;;;;;12.07;9.07;;;;;;;13.66;93.34;98654.06;4540033;26;20577;-80
2024/04/14 01:56:35;;;;;;;10.50;8.90;;;;;;;13.64;93.44;98660.38;4564329;25;20567;-80
2024/04/14 01:58:41;;;;;;;10.17;8.70;;;;;;;13.64;93.72;98650.72;4534996;26;20606;-81
2024/04/14 02:00:47;;;;;;;9.43;8.43;;;;;;;13.60;93.51;98647.59;4528251;26;20593;-81
2024/04/14 02:02:52;;;;;;;11.20;8.27;;;;;;;13.58;93.25;98652.13;4525293;26;20617;-80
2024/04/14 02:04:58;;;;;;;9.93;8.93;;;;;;;13.56;93.71;98654.00;4531207;26;20572;-80
2024/04/14 02:07:01;;;;;;;9.57;8.57;;;;;;;13.54;93.39;98653.28;4532569;26;20559;-80
2024/04/14 02:09:07;;;;;;;9.07;8.17;;;;;;;13.54;93.69;98655.91;4533339;26;20706;-81
2024/04/14 02:11:11;;;;;;;9.20;8.30;;;;;;;13.51;93.43;98654.31;4560318;26;20552;-80
2024/04/14 02:13:20;;;;;;;10.53;8.40;;;;;;;13.49;93.72;98655.41;4505149;26;20780;-80
2024/04/14 02:15:26;;;;;;;9.63;8.60;;;;;;;13.47;93.70;98657.28;4538528;26;20553;-80
2024/04/14 02:17:34;;;;;;;10.50;8.80;;;;;;;13.45;93.70;98660.00;4526805;26;20553;-80
2024/04/14 02:19:38;;;;;;;11.67;9.77;;;;;;;13.43;93.64;98661.91;4567059;25;20556;-79
2024/04/14 02:21:45;;;;;;;12.67;9.03;;;;;;;13.41;93.85;98655.94;4563274;25;20576;-80
2024/04/14 02:23:48;;;;;;;9.83;8.33;;;;;;;13.37;94.00;98645.78;4542564;26;20556;-80
2024/04/14 02:25:57;;;;;;;13.63;8.50;;;;;;;13.34;93.88;98641.59;4521382;26;21164;-80
2024/04/14 02:28:01;;;;;;;9.90;8.60;;;;;;;13.35;93.87;98648.50;4534694;26;21101;-80
2024/04/14 02:30:07;;;;;;;9.90;8.70;;;;;;;13.33;93.93;98641.69;4528401;26;20672;-80
2024/04/14 02:32:13;;;;;;;9.63;8.60;;;;;;;13.31;93.98;98648.84;4556045;26;21183;-80
2024/04/14 02:34:20;;;;;;;10.47;9.40;;;;;;;13.32;94.13;98640.88;4531447;26;20615;-80
2024/04/14 02:36:27;;;;;;;9.97;8.80;;;;;;;13.31;93.56;98639.19;4532789;26;21151;-80
2024/04/14 02:38:33;;;;;;;9.50;8.50;;;;;;;13.30;93.84;98647.16;4564419;25;21003;-80
2024/04/14 02:40:36;;;;;;;10.17;8.50;;;;;;;13.27;93.59;98650.00;4549313;26;20563;-80
2024/04/14 02:42:42;;;;;;;10.20;8.70;;;;;;;13.24;93.71;98645.81;4537491;26;20581;-80
2024/04/14 02:44:45;;;;;;;9.80;7.97;;;;;;;13.22;93.12;98646.84;4574303;25;20631;-80
2024/04/14 02:46:48;;;;;;;9.87;8.83;;;;;;;13.18;93.33;98645.38;4535362;25;20564;-80
2024/04/14 02:48:57;;;;;;;8.97;8.10;;;;;;;13.17;93.90;98642.88;4536555;26;20627;-81
2024/04/14 02:51:01;;;;;;;9.53;7.60;;;;;;;13.15;93.79;98642.97;4559552;25;20596;-80
2024/04/14 02:53:04;;;;;;;10.10;8.47;;;;;;;13.14;93.73;98643.09;4547119;25;20557;-80
2024/04/14 02:55:10;;;;;;;11.73;8.03;;;;;;;13.11;93.70;98641.53;4517496;26;20566;-80
2024/04/14 02:57:13;;;;;;;9.40;8.40;;;;;;;13.09;93.46;98637.34;4518600;26;20630;-80
2024/04/14 02:59:19;;;;;;;8.80;7.90;;;;;;;13.09;93.30;98638.16;4533268;26;20673;-80
2024/04/14 03:01:25;;;;;;;11.50;8.27;;;;;;;13.04;93.61;98637.66;4567504;25;20638;-80
2024/04/14 03:03:32;;;;;;;9.30;7.90;;;;;;;13.04;93.48;98642.06;4543687;26;20556;-79
2024/04/14 03:05:37;;;;;;;9.23;8.20;;;;;;;13.02;93.67;98634.31;4500327;26;20618;-81
2024/04/14 03:07:43;;;;;;;11.80;9.13;;;;;;;12.97;93.67;98630.34;4508216;26;21135;-80
2024/04/14 03:09:46;;;;;;;9.00;8.10;;;;;;;12.95;94.22;98630.44;4503138;26;20631;-80
2024/04/14 03:11:52;;;;;;;8.30;7.23;;;;;;;12.97;94.26;98640.81;4551452;25;20668;-80
2024/04/14 03:13:56;;;;;;;8.97;8.07;;;;;;;12.96;94.08;98639.13;4533963;26;20650;-80
2024/04/14 03:16:04;;;;;;;8.20;7.40;;;;;;;12.94;94.01;98639.22;4500923;26;20663;-80
2024/04/14 03:18:08;;;;;;;10.67;8.50;;;;;;;12.94;94.03;98641.00;4537950;26;20619;-81
2024/04/14 03:20:13;;;;;;;9.20;7.70;;;;;;;12.96;94.39;98645.22;4535219;26;20662;-81
2024/04/14 03:22:21;;;;;;;9.30;8.03;;;;;;;12.96;94.33;98645.22;4538341;26;20677;-80
2024/04/14 03:24:27;;;;;;;10.00;8.10;;;;;;;12.94;94.50;98641.84;4500563;26;21161;-80
2024/04/14 03:26:30;;;;;;;9.40;8.40;;;;;;;12.93;94.05;98640.19;4533495;26;20562;-81
2024/04/14 03:28:37;;;;;;;9.60;7.50;;;;;;;12.91;93.91;98647.28;4538771;26;21125;-81
2024/04/14 03:30:39;;;;;;;9.70;8.47;;;;;;;12.91;94.51;98647.28;4493599;26;20551;-80
2024/04/14 03:32:45;;;;;;;8.80;7.90;;;;;;;12.88;94.52;98636.19;4518540;26;20660;-80
2024/04/14 03:34:51;;;;;;;9.33;8.30;;;;;;;12.89;94.64;98638.72;4533474;26;20623;-80
2024/04/14 03:36:59;;;;;;;9.57;8.20;;;;;;;12.88;94.17;98649.28;4503609;26;20573;-81
2024/04/14 03:39:08;;;;;;;9.80;8.30;;;;;;;12.87;94.67;98645.00;4494627;26;20805;-80
2024/04/14 03:41:15;;;;;;;9.20;8.27;;;;;;;12.86;94.53;98638.91;4532157;26;21205;-80
2024/04/14 03:43:19;;;;;;;9.30;8.40;;;;;;;12.86;94.71;98649.41;4506145;26;20652;-80
2024/04/14 03:45:24;;;;;;;9.53;8.53;;;;;;;12.85;94.71;98642.50;4519933;26;20584;-80
2024/04/14 03:47:31;;;;;;;9.47;7.90;;;;;;;12.84;94.73;98643.44;4528077;26;20557;-80
2024/04/14 03:49:34;;;;;;;11.80;10.20;;;;;;;12.81;94.30;98648.84;4537172;26;20556;-80
2024/04/14 03:51:39;;;;;;;9.83;8.93;;;;;;;12.80;94.69;98644.53;4564439;25;20559;-80
2024/04/14 03:53:43;;;;;;;13.40;9.87;;;;;;;12.77;94.45;98642.13;4523966;26;20929;-81
2024/04/14 03:55:53;;;;;;;11.90;10.00;;;;;;;12.75;94.25;98637.97;4536410;26;20552;-81
2024/04/14 03:57:56;;;;;;;13.77;12.13;;;;;;;12.71;94.59;98645.16;4533901;26;20593;-80
2024/04/14 04:00:03;;;;;;;13.60;11.63;;;;;;;12.72;94.74;98652.09;4571896;25;20605;-81
2024/04/14 04:02:06;;;;;;;14.90;13.17;;;;;;;12.69;94.96;98652.28;4541660;26;20571;-80
2024/04/14 04:04:13;;;;;;;15.37;13.10;;;;;;;12.68;94.75;98649.78;4522554;26;20569;-79
2024/04/14 04:06:17;;;;;;;14.07;12.00;;;;;;;12.65;94.68;98647.38;4527514;26;20575;-80
2024/04/14 04:08:22;;;;;;;16.20;14.17;;;;;;;12.65;94.80;98657.00;4536328;26;20558;-81
2024/04/14 04:10:26;;;;;;;16.73;14.77;;;;;;;12.63;94.67;98654.50;4538573;26;21155;-81
2024/04/14 04:12:34;;;;;;;14.50;12.97;;;;;;;12.63;94.68;98645.78;4533135;26;20642;-80
2024/04/14 04:14:41;;;;;;;17.53;14.70;;;;;;;12.61;94.50;98652.91;4546500;26;20563;-80
2024/04/14 04:16:46;;;;;;;19.47;15.97;;;;;;;12.62;94.64;98655.44;4534945;26;20570;-81
2024/04/14 04:18:49;;;;;;;18.33;15.00;;;;;;;12.61;94.79;98656.34;4521059;26;20590;-80
2024/04/14 04:20:56;;;;;;;17.90;16.10;;;;;;;12.64;94.87;98655.31;4529235;26;20612;-81
2024/04/14 04:23:00;;;;;;;16.93;15.20;;;;;;;12.61;94.60;98658.97;4507993;26;20615;-80
2024/04/14 04:25:06;;;;;;;19.00;16.47;;;;;;;12.57;95.02;98652.28;4539743;26;20549;-81
2024/04/14 04:27:09;;;;;;;19.93;17.07;;;;;;;12.54;94.90;98651.63;4516444;26;20563;-80
2024/04/14 04:29:18;;;;;;;19.80;16.40;;;;;;;12.51;95.21;98657.94;4503212;26;20567;-80
2024/04/14 04:31:21;;;;;;;17.77;15.20;;;;;;;12.52;95.04;98664.00;4538827;26;20568;-80
2024/04/14 04:33:28;;;;;;;19.50;16.40;;;;;;;12.51;95.10;98657.94;4527269;26;20580;-81
2024/04/14 04:35:31;;;;;;;18.43;16.57;;;;;;;12.50;94.99;98660.66;4507289;26;20656;-80
2024/04/14 04:37:38;;;;;;;17.97;16.07;;;;;;;12.51;95.21;98659.69;4566371;25;20566;-80
2024/04/14 04:39:41;;;;;;;21.30;16.40;;;;;;;12.51;95.33;98662.31;4564205;25;20937;-80
2024/04/14 04:41:47;;;;;;;19.90;16.33;;;;;;;12.47;95.25;98659.06;4568435;25;20570;-80
2024/04/14 04:43:50;;;;;;;18.87;16.30;;;;;;;12.47;95.67;98666.09;4547307;26;20561;-81
2024/04/14 04:45:59;;;;;;;18.67;15.60;;;;;;;12.49;95.59;98658.97;4539620;26;20600;-81
2024/04/14 04:48:03;;;;;;;19.20;15.40;;;;;;;12.52;95.40;98666.63;4547760;26;20609;-81
2024/04/14 04:50:09;;;;;;;16.87;14.50;;;;;;;12.54;95.72;98662.09;4551722;26;21059;-81
2024/04/14 04:52:12;;;;;;;17.87;16.00;;;;;;;12.54;95.36;98667.34;4507294;26;21221;-81
2024/04/14 04:54:19;;;;;;;17.57;15.03;;;;;;;12.55;95.85;98669.03;4499969;26;20621;-79
2024/04/14 04:56:23;;;;;;;19.63;15.23;;;;;;;12.56;96.12;98665.47;4495204;26;21153;-80
2024/04/14 04:58:28;;;;;;;17.73;14.93;;;;;;;12.53;95.21;98668.31;4568672;25;20558;-80
2024/04/14 05:00:31;;;;;;;17.30;14.70;;;;;;;12.50;94.67;98658.03;4543563;26;20560;-81
2024/04/14 05:02:40;;;;;;;21.17;14.00;;;;;;;12.50;94.55;98661.47;4509675;26;20635;-80
2024/04/14 05:04:43;;;;;;;16.50;14.10;;;;;;;12.52;94.25;98661.38;4532092;26;21233;-81
2024/04/14 05:06:48;;;;;;;17.80;14.40;;;;;;;12.52;94.51;98664.81;4532312;26;20564;-80
2024/04/14 05:08:51;;;;;;;16.53;14.20;;;;;;;12.57;94.73;98672.38;4532312;26;20559;-80
2024/04/14 05:10:57;;;;;;;16.20;13.17;;;;;;;12.62;95.56;98667.69;4535694;26;20560;-80
2024/04/14 05:13:01;;;;;;;15.30;13.43;;;;;;;12.72;95.70;98677.44;4532938;26;20570;-81
2024/04/14 05:15:06;;;;;;;15.00;13.40;;;;;;;12.81;95.95;98669.78;4530149;26;20567;-81
2024/04/14 05:17:13;;;;;;;14.40;12.90;;;;;;;12.94;95.91;98675.88;4522061;26;20615;-80
2024/04/14 05:19:18;;;;;;;15.20;13.37;;;;;;;13.10;95.83;98691.41;4559686;25;20696;-81
2024/04/14 05:21:25;;;;;;;19.63;13.50;;;;;;;13.20;94.75;98688.06;4531241;26;20548;-80
2024/04/14 05:23:29;;;;;;;15.10;12.67;;;;;;;13.28;95.08;98689.16;4529997;26;20642;-80
2024/04/14 05:25:35;;;;;;;14.07;12.57;;;;;;;13.41;94.34;98694.38;4539712;26;20646;-80
2024/04/14 05:27:38;;;;;;;15.03;13.47;;;;;;;13.48;93.86;98696.47;4547464;26;21202;-80
2024/04/14 05:29:45;;;;;;;14.63;13.23;;;;;;;13.57;94.11;98700.25;4530371;26;20547;-80
2024/04/14 05:31:49;;;;;;;14.40;12.60;;;;;;;13.62;93.36;98700.75;4504027;26;20569;-80
2024/04/14 05:33:56;;;;;;;15.47;12.80;;;;;;;13.69;94.10;98703.66;4509715;26;20569;-80
2024/04/14 05:36:02;;;;;;;14.57;12.50;;;;;;;13.79;93.91;98698.63;4510191;26;20559;-81
2024/04/14 05:38:08;;;;;;;14.07;12.67;;;;;;;13.82;93.05;98706.25;4528048;26;20586;-81
2024/04/14 05:40:11;;;;;;;15.50;12.70;;;;;;;13.85;93.27;98704.25;4517695;26;20571;-80
2024/04/14 05:42:17;;;;;;;13.73;12.33;;;;;;;13.90;93.34;98707.38;4540152;26;20554;-81
2024/04/14 05:44:20;;;;;;;14.40;12.90;;;;;;;13.93;92.68;98709.78;4539176;26;20567;-81
2024/04/14 05:46:26;;;;;;;16.13;12.40;;;;;;;13.97;93.24;98705.19;4537505;26;20577;-81
2024/04/14 05:48:29;;;;;;;14.73;11.63;;;;;;;14.02;93.00;98714.38;4531699;26;20577;-81
2024/04/14 05:50:35;;;;;;;11.43;10.23;;;;;;;14.08;92.60;98719.19;4534682;26;20608;-81
2024/04/14 05:52:42;;;;;;;14.40;11.50;;;;;;;14.18;92.38;98717.59;4544422;26;20624;-81
2024/04/14 05:54:49;;;;;;;13.30;11.80;;;;;;;14.32;93.47;98722.69;4532368;26;21553;-80
2024/04/14 05:56:52;;;;;;;14.70;11.30;;;;;;;14.41;92.41;98727.25;4507340;26;20620;-81
2024/04/14 05:58:58;;;;;;;14.57;12.60;;;;;;;14.46;93.14;98720.69;4528418;26;20607;-80
2024/04/14 06:01:04;;;;;;;14.27;11.03;;;;;;;14.51;91.70;98715.09;4539439;26;21400;-81
2024/04/14 06:03:10;;;;;;;12.73;11.37;;;;;;;14.59;92.21;98712.78;4528421;26;20568;-81
2024/04/14 06:05:14;;;;;;;12.77;11.47;;;;;;;14.71;91.42;98716.13;4540243;26;20567;-81
2024/04/14 06:07:20;;;;;;;13.40;11.90;;;;;;;14.82;91.32;98718.78;4536265;26;20568;-81
2024/04/14 06:09:26;;;;;;;13.33;11.90;;;;;;;14.92;90.18;98719.78;4498581;26;20641;-80
2024/04/14 06:11:32;;;;;;;11.60;10.40;;;;;;;15.04;89.79;98729.38;4527280;26;20654;-80
2024/04/14 06:13:35;;;;;;;13.73;10.67;;;;;;;15.12;89.35;98724.34;4532351;26;20581;-81
2024/04/14 06:15:40;;;;;;;12.27;10.97;;;;;;;15.25;90.04;98727.78;4537428;26;20618;-80
2024/04/14 06:17:43;;;;;;;12.10;10.90;;;;;;;15.29;90.08;98729.19;4528870;26;20650;-81
2024/04/14 06:19:49;;;;;;;13.20;11.90;;;;;;;15.30;89.95;98725.63;4527249;26;20551;-81
2024/04/14 06:21:52;;;;;;;14.80;12.80;;;;;;;15.35;89.14;98734.84;4528802;26;20652;-80
2024/04/14 06:23:58;;;;;;;15.47;13.87;;;;;;;15.40;88.76;98740.56;4507190;26;20602;-80
2024/04/14 06:26:03;;;;;;;12.70;11.40;;;;;;;15.40;88.27;98739.72;4545594;26;20568;-81
2024/04/14 06:28:10;;;;;;;13.60;11.60;;;;;;;15.49;90.12;98744.28;4532498;26;20546;-81
2024/04/14 06:30:13;;;;;;;12.87;11.57;;;;;;;15.60;90.71;98745.94;4506148;26;21121;-80
2024/04/14 06:32:19;;;;;;;12.27;11.07;;;;;;;15.77;90.08;98744.63;4503930;26;20640;-80
2024/04/14 06:34:22;;;;;;;14.30;11.97;;;;;;;15.94;90.42;98750.22;4504870;26;20563;-81
2024/04/14 06:36:28;;;;;;;12.50;11.30;;;;;;;16.14;90.84;98757.38;4529392;26;20566;-80
2024/04/14 06:38:31;;;;;;;11.77;10.57;;;;;;;16.41;89.70;98765.72;4539143;26;20609;-80
2024/04/14 06:40:36;;;;;;;12.60;10.10;;;;;;;16.60;88.40;98767.56;4533159;26;21366;-81
2024/04/14 06:42:42;;;;;;;10.33;9.40;;;;;;;16.72;87.55;98750.78;4526085;26;21180;-80
2024/04/14 06:44:48;;;;;;;10.93;9.67;;;;;;;16.73;86.13;98755.09;4503531;26;21094;-81
2024/04/14 06:46:52;;;;;;;10.70;9.60;;;;;;;16.82;85.82;98750.84;4537192;26;21613;-81
2024/04/14 06:48:57;;;;;;;10.63;9.53;;;;;;;16.99;86.56;98751.94;4534468;26;20570;-82
2024/04/14 06:51:00;;;;;;;10.30;9.30;;;;;;;17.21;86.54;98754.47;4538315;26;20985;-81
2024/04/14 06:53:07;;;;;;;10.50;9.40;;;;;;;17.32;86.11;98748.28;4548924;26;20577;-80
2024/04/14 06:55:12;;;;;;;11.13;10.03;;;;;;;17.48;86.53;98757.41;4528714;26;21190;-80
2024/04/14 06:57:18;;;;;;;12.30;10.17;;;;;;;17.69;87.68;98758.22;4527755;26;20645;-80
2024/04/14 06:59:23;;;;;;;10.97;9.87;;;;;;;17.92;87.16;98774.59;4509836;26;20576;-80
2024/04/14 07:01:29;;;;;;;22.43;19.33;;;;;;;18.23;87.33;98762.19;4523101;26;20714;-80
2024/04/14 07:03:33;;;;;;;10.83;9.70;;;;;;;18.54;86.71;98772.56;4535039;26;21158;-80
2024/04/14 07:05:39;;;;;;;12.10;9.90;;;;;;;18.65;85.71;98777.72;4527688;26;20920;-80
2024/04/14 07:07:51;;;;;;;10.77;9.23;;;;;;;18.80;83.70;98766.59;4533583;26;20649;-79
2024/04/14 07:09:57;;;;;;;11.60;8.90;;;;;;;19.00;83.56;98773.53;4538630;26;21149;-80
2024/04/14 07:12:00;;;;;;;10.07;9.07;;;;;;;19.09;81.95;98770.94;4504023;26;20629;-80
2024/04/14 07:14:05;;;;;;;11.93;10.73;;;;;;;19.29;83.97;98766.44;4565900;25;20543;-80
2024/04/14 07:16:11;;;;;;;16.07;10.43;;;;;;;19.46;82.88;98770.03;4546663;26;20678;-80
2024/04/14 07:18:17;;;;;;;13.63;10.13;;;;;;;19.58;82.32;98773.34;4543544;26;21128;-80
2024/04/14 07:20:21;;;;;;;10.50;9.50;;;;;;;19.67;82.61;98770.66;4535245;26;20576;-80
2024/04/14 07:22:26;;;;;;;10.50;9.40;;;;;;;19.83;82.87;98774.38;4562103;25;20567;-80
2024/04/14 07:24:33;;;;;;;10.80;8.93;;;;;;;20.03;80.42;98769.88;4533493;26;20554;-80
2024/04/14 07:26:39;;;;;;;9.20;7.90;;;;;;;20.11;80.03;98775.28;4501554;26;20619;-80
2024/04/14 07:28:44;;;;;;;7.10;6.20;;;;;;;20.30;77.12;98772.50;4513975;26;20623;-80
2024/04/14 07:30:50;;;;;;;6.80;6.10;;;;;;;20.45;77.66;98764.75;4507199;26;21201;-80
2024/04/14 07:32:56;;;;;;;7.97;6.60;;;;;;;20.59;76.79;98769.53;4536105;26;20633;-80
2024/04/14 07:35:02;;;;;;;7.57;6.30;;;;;;;20.82;76.23;98760.19;4540235;26;21022;-81
2024/04/14 07:37:05;;;;;;;8.37;6.20;;;;;;;21.05;76.45;98761.38;4536875;26;20621;-80
2024/04/14 07:39:11;;;;;;;8.87;6.63;;;;;;;21.17;74.88;98765.47;4536869;26;21220;-80
2024/04/14 07:41:14;;;;;;;6.73;5.70;;;;;;;21.33;75.07;98754.00;4538634;26;20916;-81
2024/04/14 07:43:19;;;;;;;7.20;5.47;;;;;;;21.54;75.67;98759.81;4569079;25;20701;-80
2024/04/14 07:45:22;;;;;;;7.30;5.90;;;;;;;21.76;77.03;98761.94;4567070;26;20613;-81
2024/04/14 07:47:28;;;;;;;9.40;6.77;;;;;;;21.92;75.82;98754.03;4568696;25;20832;-81
2024/04/14 07:49:36;;;;;;;6.70;6.10;;;;;;;21.95;73.05;98753.72;4508943;26;20580;-81
2024/04/14 07:51:45;;;;;;;6.80;5.80;;;;;;;21.98;73.26;98751.59;4542999;26;21008;-81
2024/04/14 07:53:49;;;;;;;6.77;5.80;;;;;;;22.09;72.47;98747.84;4541931;26;20568;-82
2024/04/14 07:55:55;;;;;;;6.80;6.10;;;;;;;22.23;73.61;98744.59;4514929;26;20564;-84
2024/04/14 07:57:58;;;;;;;6.53;5.70;;;;;;;22.39;72.74;98750.81;4536384;26;20547;-83
2024/04/14 08:00:05;;;;;;;7.00;6.23;;;;;;;22.57;72.44;98748.84;4492169;26;20627;-82
2024/04/14 08:02:13;;;;;;;8.10;5.73;;;;;;;22.71;72.44;98748.22;4527006;26;20579;-83
2024/04/14 08:04:19;;;;;;;6.57;5.60;;;;;;;22.86;70.93;98748.22;4517121;26;20642;-83
2024/04/14 08:06:24;;;;;;;9.17;5.40;;;;;;;22.98;70.63;98749.59;4531598;26;20568;-84
2024/04/14 08:08:30;;;;;;;6.30;5.50;;;;;;;23.17;69.46;98746.63;4543128;26;20571;-80
2024/04/14 08:10:33;;;;;;;5.53;4.53;;;;;;;23.20;70.76;98749.78;4536827;26;21161;-80
2024/04/14 08:12:39;;;;;;;5.80;4.40;;;;;;;23.33;72.69;98744.78;4540919;26;20560;-80
2024/04/14 08:14:42;;;;;;;5.40;4.33;;;;;;;23.39;70.71;98749.41;4574671;25;21330;-81
2024/04/14 08:16:51;;;;;;;6.53;4.67;;;;;;;23.40;69.81;98747.59;4538548;26;20640;-79
2024/04/14 08:18:54;;;;;;;6.63;4.10;;;;;;;23.42;68.83;98741.09;4500217;26;20565;-79
2024/04/14 08:21:02;;;;;;;4.70;4.10;;;;;;;23.49;69.28;98735.94;4551634;26;20617;-81
2024/04/14 08:23:07;;;;;;;6.10;4.50;;;;;;;23.55;69.97;98738.75;4506787;26;21210;-81
2024/04/14 08:25:14;;;;;;;5.10;4.00;;;;;;;23.63;70.16;98749.38;4514302;26;20614;-80
2024/04/14 08:27:17;;;;;;;5.47;4.20;;;;;;;23.74;69.58;98749.91;4559572;25;20632;-80
2024/04/14 08:29:25;;;;;;;5.57;4.10;;;;;;;23.74;69.26;98739.25;4524557;26;20625;-80
2024/04/14 08:31:28;;;;;;;4.60;4.10;;;;;;;23.81;68.81;98742.03;4503433;26;20569;-81
2024/04/14 08:33:33;;;;;;;5.50;4.37;;;;;;;23.86;70.00;98745.03;4524415;26;20919;-81
2024/04/14 08:35:37;;;;;;;6.03;4.77;;;;;;;23.94;70.17;98747.69;4532831;26;20550;-80
2024/04/14 08:37:42;;;;;;;4.73;3.93;;;;;;;24.08;69.76;98741.63;4535222;26;20551;-81
2024/04/14 08:39:47;;;;;;;4.70;3.90;;;;;;;24.18;68.44;98743.91;4531325;26;21216;-82
2024/04/14 08:41:54;;;;;;;4.43;3.77;;;;;;;24.26;68.78;98749.19;4538798;26;20629;-80
2024/04/14 08:43:58;;;;;;;4.30;3.57;;;;;;;24.35;69.06;98748.19;4542956;26;20676;-81
2024/04/14 08:46:06;;;;;;;7.83;3.53;;;;;;;24.46;68.42;98747.81;4500805;26;20948;-82
2024/04/14 08:48:10;;;;;;;6.57;4.63;;;;;;;24.47;68.25;98743.31;4541749;26;20580;-81
2024/04/14 08:50:17;;;;;;;4.57;3.90;;;;;;;24.48;68.63;98745.81;4512173;26;20562;-82
2024/04/14 08:52:20;;;;;;;3.90;3.50;;;;;;;24.58;69.62;98743.72;4537810;26;20669;-81
2024/04/14 08:54:26;;;;;;;6.43;4.37;;;;;;;24.60;69.13;98738.22;4493360;26;20599;-80
2024/04/14 08:56:32;;;;;;;6.87;4.30;;;;;;;24.65;68.63;98729.50;4530267;26;20553;-82
2024/04/14 08:58:39;;;;;;;5.17;3.77;;;;;;;24.71;68.32;98727.97;4555053;26;21115;-81
2024/04/14 09:00:44;;;;;;;5.70;4.30;;;;;;;24.65;67.61;98723.34;4574259;25;20562;-81
2024/04/14 09:02:51;;;;;;;5.33;4.00;;;;;;;24.65;68.82;98729.50;4511285;26;20634;-81
2024/04/14 09:04:55;;;;;;;4.93;4.03;;;;;;;24.73;68.60;98731.28;4537461;26;21270;-81
2024/04/14 09:07:01;;;;;;;4.63;4.00;;;;;;;24.67;69.73;98729.34;4566105;26;21088;-81
2024/04/14 09:09:04;;;;;;;5.93;4.23;;;;;;;24.67;68.36;98732.00;4539584;26;20659;-81
2024/04/14 09:11:10;;;;;;;4.83;4.33;;;;;;;24.70;67.76;98726.31;4497403;26;21357;-80
2024/04/14 09:13:17;;;;;;;4.70;4.20;;;;;;;24.72;67.57;98726.97;4549703;26;20558;-81
2024/04/14 09:15:23;;;;;;;6.00;4.27;;;;;;;24.73;67.68;98726.81;4546131;26;20554;-81
2024/04/14 09:17:26;;;;;;;4.77;3.80;;;;;;;24.77;67.92;98727.28;4537168;26;20556;-81
2024/04/14 09:19:36;;;;;;;5.03;4.50;;;;;;;24.88;69.12;98729.53;4513912;26;20549;-81
2024/04/14 09:21:42;;;;;;;5.63;4.20;;;;;;;24.98;67.75;98727.47;4515549;25;20547;-81
2024/04/14 09:23:48;;;;;;;5.50;4.20;;;;;;;24.96;68.21;98729.47;4528195;26;20573;-79
2024/04/14 09:25:51;;;;;;;6.53;4.60;;;;;;;25.04;68.33;98724.94;4538652;26;21151;-81
2024/04/14 09:28:04;;;;;;;7.00;4.33;;;;;;;25.04;68.81;98734.78;4559702;26;20949;-81
2024/04/14 09:30:18;;;;;;;7.30;4.00;;;;;;;24.95;68.77;98725.16;4523153;26;20664;-80
2024/04/14 09:32:23;;;;;;;5.70;4.50;;;;;;;24.97;69.07;98733.81;4490164;26;20739;-81
2024/04/14 09:34:27;;;;;;;6.20;3.97;;;;;;;25.08;67.98;98731.59;4512842;26;20581;-80
2024/04/14 09:36:32;;;;;;;6.97;4.60;;;;;;;25.23;68.83;98724.44;4541049;26;21263;-81
2024/04/14 09:38:36;;;;;;;4.90;4.40;;;;;;;25.26;69.34;98719.56;4533973;26;20604;-81
2024/04/14 09:40:42;;;;;;;8.33;5.10;;;;;;;25.46;69.35;98723.38;4542923;26;20638;-81
2024/04/14 09:42:45;;;;;;;4.93;3.70;;;;;;;25.40;67.48;98724.09;4535010;26;20698;-81
2024/04/14 09:44:51;;;;;;;7.20;4.73;;;;;;;25.30;68.95;98720.03;4538160;26;21103;-80